Terminal Aerodrome Forecast
Issued by NWS

Home | Current Version | Previous Version | Text Only | Print | Product List | Glossary Off
Versions: 1 2 3 4 5 6 7 8 9 10 11 12 13 14

000
FTUS43 KMPX 030520
TAFRNH
TAF
KRNH 030520Z 0306/0406 19007KT P6SM SCT250
     FM031200 18007KT P6SM VCSH SCT050 BKN120
     FM031600 21008KT P6SM SCT045 BKN100
     FM032100 29009KT P6SM -SHRA OVC045 PROB30 0321/0324 4SM TSRA
      OVC035CB
     FM040100 35007KT P6SM BKN050=

USA.gov is the U.S. government's official web portal to all federal, state and local government web resources and services.